sensor_id;sensor_type;location;lat;lon;timestamp;P1;durP1;ratioP1;P2;durP2;ratioP2
75890;SDS011;64571;47.512;19.054;2024-01-27T00:00:32;6.32;;;2.47;;
75890;SDS011;64571;47.512;19.054;2024-01-27T00:03:34;8.90;;;3.13;;
75890;SDS011;64571;47.512;19.054;2024-01-27T00:06:37;8.50;;;2.70;;
75890;SDS011;64571;47.512;19.054;2024-01-27T00:09:40;7.35;;;1.87;;
75890;SDS011;64571;47.512;19.054;2024-01-27T00:12:43;6.55;;;2.10;;
75890;SDS011;64571;47.512;19.054;2024-01-27T00:15:45;5.40;;;2.03;;
75890;SDS011;64571;47.512;19.054;2024-01-27T00:18:48;6.90;;;2.30;;
75890;SDS011;64571;47.512;19.054;2024-01-27T00:21:51;6.15;;;2.33;;
75890;SDS011;64571;47.512;19.054;2024-01-27T00:24:53;7.80;;;2.70;;
75890;SDS011;64571;47.512;19.054;2024-01-27T00:27:56;8.13;;;2.20;;
75890;SDS011;64571;47.512;19.054;2024-01-27T00:30:58;6.10;;;1.70;;
75890;SDS011;64571;47.512;19.054;2024-01-27T00:34:01;6.10;;;2.03;;
75890;SDS011;64571;47.512;19.054;2024-01-27T00:37:04;6.00;;;1.90;;
75890;SDS011;64571;47.512;19.054;2024-01-27T00:40:07;5.40;;;1.52;;
75890;SDS011;64571;47.512;19.054;2024-01-27T00:43:11;5.55;;;1.30;;
75890;SDS011;64571;47.512;19.054;2024-01-27T00:46:14;4.00;;;1.20;;
75890;SDS011;64571;47.512;19.054;2024-01-27T00:49:16;5.03;;;1.30;;
75890;SDS011;64571;47.512;19.054;2024-01-27T00:52:19;4.57;;;0.80;;
75890;SDS011;64571;47.512;19.054;2024-01-27T00:55:22;4.65;;;1.10;;
75890;SDS011;64571;47.512;19.054;2024-01-27T00:58:24;5.35;;;0.62;;
75890;SDS011;64571;47.512;19.054;2024-01-27T01:01:27;3.20;;;0.75;;
75890;SDS011;64571;47.512;19.054;2024-01-27T01:04:30;5.40;;;1.73;;
75890;SDS011;64571;47.512;19.054;2024-01-27T01:07:33;3.75;;;1.05;;
75890;SDS011;64571;47.512;19.054;2024-01-27T01:10:35;5.43;;;1.30;;
75890;SDS011;64571;47.512;19.054;2024-01-27T01:13:38;4.43;;;1.23;;
75890;SDS011;64571;47.512;19.054;2024-01-27T01:16:40;5.87;;;1.42;;
75890;SDS011;64571;47.512;19.054;2024-01-27T01:19:43;4.90;;;1.10;;
75890;SDS011;64571;47.512;19.054;2024-01-27T01:22:46;4.93;;;1.00;;
75890;SDS011;64571;47.512;19.054;2024-01-27T01:25:48;3.97;;;1.05;;
75890;SDS011;64571;47.512;19.054;2024-01-27T01:28:51;4.15;;;1.00;;
75890;SDS011;64571;47.512;19.054;2024-01-27T01:31:54;6.40;;;0.90;;
75890;SDS011;64571;47.512;19.054;2024-01-27T01:34:56;5.53;;;1.07;;
75890;SDS011;64571;47.512;19.054;2024-01-27T01:37:59;3.08;;;0.70;;
75890;SDS011;64571;47.512;19.054;2024-01-27T01:41:01;3.92;;;1.10;;
75890;SDS011;64571;47.512;19.054;2024-01-27T01:44:04;3.33;;;0.75;;
75890;SDS011;64571;47.512;19.054;2024-01-27T01:47:07;3.80;;;1.05;;
75890;SDS011;64571;47.512;19.054;2024-01-27T01:50:10;4.73;;;0.90;;
75890;SDS011;64571;47.512;19.054;2024-01-27T01:53:13;3.33;;;0.88;;
75890;SDS011;64571;47.512;19.054;2024-01-27T01:56:15;3.45;;;0.98;;
75890;SDS011;64571;47.512;19.054;2024-01-27T01:59:18;3.40;;;0.88;;
75890;SDS011;64571;47.512;19.054;2024-01-27T02:02:20;3.00;;;0.60;;
75890;SDS011;64571;47.512;19.054;2024-01-27T02:05:23;3.23;;;0.93;;
75890;SDS011;64571;47.512;19.054;2024-01-27T02:08:26;3.40;;;1.00;;
75890;SDS011;64571;47.512;19.054;2024-01-27T02:11:29;4.10;;;1.08;;
75890;SDS011;64571;47.512;19.054;2024-01-27T02:14:32;2.65;;;0.65;;
75890;SDS011;64571;47.512;19.054;2024-01-27T02:17:34;3.70;;;0.57;;
75890;SDS011;64571;47.512;19.054;2024-01-27T02:20:37;3.17;;;0.90;;
75890;SDS011;64571;47.512;19.054;2024-01-27T02:23:40;5.07;;;0.88;;
75890;SDS011;64571;47.512;19.054;2024-01-27T02:26:42;2.15;;;0.50;;
75890;SDS011;64571;47.512;19.054;2024-01-27T02:29:45;3.35;;;0.70;;
75890;SDS011;64571;47.512;19.054;2024-01-27T02:32:48;3.15;;;0.60;;
75890;SDS011;64571;47.512;19.054;2024-01-27T02:35:50;4.23;;;0.87;;
75890;SDS011;64571;47.512;19.054;2024-01-27T02:38:53;4.32;;;0.60;;
75890;SDS011;64571;47.512;19.054;2024-01-27T02:41:56;3.35;;;0.50;;
75890;SDS011;64571;47.512;19.054;2024-01-27T02:44:58;6.57;;;0.60;;
75890;SDS011;64571;47.512;19.054;2024-01-27T02:48:01;3.60;;;0.80;;
75890;SDS011;64571;47.512;19.054;2024-01-27T02:51:04;3.07;;;0.67;;
75890;SDS011;64571;47.512;19.054;2024-01-27T02:54:07;2.67;;;0.40;;
75890;SDS011;64571;47.512;19.054;2024-01-27T02:57:09;2.95;;;0.85;;
75890;SDS011;64571;47.512;19.054;2024-01-27T03:00:12;2.65;;;0.50;;
75890;SDS011;64571;47.512;19.054;2024-01-27T03:03:15;4.47;;;0.60;;
75890;SDS011;64571;47.512;19.054;2024-01-27T03:06:18;2.37;;;0.40;;
75890;SDS011;64571;47.512;19.054;2024-01-27T03:09:20;4.20;;;0.60;;
75890;SDS011;64571;47.512;19.054;2024-01-27T03:12:23;4.25;;;0.60;;
75890;SDS011;64571;47.512;19.054;2024-01-27T03:15:25;2.25;;;0.50;;
75890;SDS011;64571;47.512;19.054;2024-01-27T03:18:28;2.62;;;0.73;;
75890;SDS011;64571;47.512;19.054;2024-01-27T03:21:31;3.47;;;0.60;;
75890;SDS011;64571;47.512;19.054;2024-01-27T03:24:34;2.30;;;0.47;;
75890;SDS011;64571;47.512;19.054;2024-01-27T03:27:36;1.90;;;0.40;;
75890;SDS011;64571;47.512;19.054;2024-01-27T03:30:39;2.37;;;0.50;;
75890;SDS011;64571;47.512;19.054;2024-01-27T03:33:42;2.75;;;0.60;;
75890;SDS011;64571;47.512;19.054;2024-01-27T03:36:47;1.77;;;0.40;;
75890;SDS011;64571;47.512;19.054;2024-01-27T03:39:51;4.18;;;1.08;;
75890;SDS011;64571;47.512;19.054;2024-01-27T03:42:53;2.75;;;0.65;;
75890;SDS011;64571;47.512;19.054;2024-01-27T03:45:59;2.00;;;0.37;;
75890;SDS011;64571;47.512;19.054;2024-01-27T03:49:02;2.53;;;0.40;;
75890;SDS011;64571;47.512;19.054;2024-01-27T03:52:05;2.60;;;0.60;;
75890;SDS011;64571;47.512;19.054;2024-01-27T03:55:08;3.10;;;0.73;;
75890;SDS011;64571;47.512;19.054;2024-01-27T03:58:10;3.15;;;0.60;;
75890;SDS011;64571;47.512;19.054;2024-01-27T04:01:13;4.78;;;0.85;;
75890;SDS011;64571;47.512;19.054;2024-01-27T04:04:17;2.17;;;0.37;;
75890;SDS011;64571;47.512;19.054;2024-01-27T04:07:19;3.50;;;0.60;;
75890;SDS011;64571;47.512;19.054;2024-01-27T04:10:22;2.45;;;0.50;;
75890;SDS011;64571;47.512;19.054;2024-01-27T04:13:25;5.15;;;1.10;;
75890;SDS011;64571;47.512;19.054;2024-01-27T04:16:28;4.00;;;0.75;;
75890;SDS011;64571;47.512;19.054;2024-01-27T04:19:30;5.82;;;0.70;;
75890;SDS011;64571;47.512;19.054;2024-01-27T04:22:33;2.97;;;0.87;;
75890;SDS011;64571;47.512;19.054;2024-01-27T04:25:36;3.70;;;0.70;;
75890;SDS011;64571;47.512;19.054;2024-01-27T04:28:39;3.40;;;0.68;;
75890;SDS011;64571;47.512;19.054;2024-01-27T04:31:42;2.28;;;0.50;;
75890;SDS011;64571;47.512;19.054;2024-01-27T04:34:44;4.55;;;0.60;;
75890;SDS011;64571;47.512;19.054;2024-01-27T04:37:47;3.27;;;0.60;;
75890;SDS011;64571;47.512;19.054;2024-01-27T04:40:50;3.17;;;0.70;;
75890;SDS011;64571;47.512;19.054;2024-01-27T04:43:53;4.07;;;0.80;;
75890;SDS011;64571;47.512;19.054;2024-01-27T04:46:57;3.75;;;0.70;;
75890;SDS011;64571;47.512;19.054;2024-01-27T04:50:00;3.17;;;0.73;;
75890;SDS011;64571;47.512;19.054;2024-01-27T04:53:03;3.50;;;0.77;;
75890;SDS011;64571;47.512;19.054;2024-01-27T04:56:06;3.40;;;0.80;;
75890;SDS011;64571;47.512;19.054;2024-01-27T04:59:10;3.92;;;0.70;;
75890;SDS011;64571;47.512;19.054;2024-01-27T05:02:12;4.22;;;0.82;;
75890;SDS011;64571;47.512;19.054;2024-01-27T05:05:15;5.20;;;0.98;;
75890;SDS011;64571;47.512;19.054;2024-01-27T05:08:18;6.40;;;0.90;;
75890;SDS011;64571;47.512;19.054;2024-01-27T05:11:29;3.45;;;0.70;;
75890;SDS011;64571;47.512;19.054;2024-01-27T05:14:33;3.67;;;0.75;;
75890;SDS011;64571;47.512;19.054;2024-01-27T05:17:35;3.70;;;0.77;;
75890;SDS011;64571;47.512;19.054;2024-01-27T05:20:38;3.42;;;1.25;;
75890;SDS011;64571;47.512;19.054;2024-01-27T05:23:41;4.67;;;0.67;;
75890;SDS011;64571;47.512;19.054;2024-01-27T05:26:43;4.60;;;0.47;;
75890;SDS011;64571;47.512;19.054;2024-01-27T05:29:46;4.03;;;0.55;;
75890;SDS011;64571;47.512;19.054;2024-01-27T05:32:48;2.95;;;1.02;;
75890;SDS011;64571;47.512;19.054;2024-01-27T05:35:51;3.28;;;0.55;;
75890;SDS011;64571;47.512;19.054;2024-01-27T05:38:54;3.27;;;0.70;;
75890;SDS011;64571;47.512;19.054;2024-01-27T05:41:57;2.67;;;0.62;;
75890;SDS011;64571;47.512;19.054;2024-01-27T05:44:59;7.43;;;0.95;;
75890;SDS011;64571;47.512;19.054;2024-01-27T05:48:02;6.28;;;0.90;;
75890;SDS011;64571;47.512;19.054;2024-01-27T05:51:05;3.37;;;0.90;;
75890;SDS011;64571;47.512;19.054;2024-01-27T05:54:07;3.83;;;0.37;;
75890;SDS011;64571;47.512;19.054;2024-01-27T05:57:12;3.95;;;0.75;;
75890;SDS011;64571;47.512;19.054;2024-01-27T06:00:14;3.72;;;1.10;;
75890;SDS011;64571;47.512;19.054;2024-01-27T06:03:17;3.92;;;0.50;;
75890;SDS011;64571;47.512;19.054;2024-01-27T06:06:20;3.80;;;0.98;;
75890;SDS011;64571;47.512;19.054;2024-01-27T06:09:23;4.30;;;0.93;;
75890;SDS011;64571;47.512;19.054;2024-01-27T06:12:25;2.65;;;0.50;;
75890;SDS011;64571;47.512;19.054;2024-01-27T06:15:28;6.68;;;1.00;;
75890;SDS011;64571;47.512;19.054;2024-01-27T06:18:31;4.18;;;0.50;;
75890;SDS011;64571;47.512;19.054;2024-01-27T06:21:33;3.90;;;0.90;;
75890;SDS011;64571;47.512;19.054;2024-01-27T06:24:41;3.33;;;0.70;;
75890;SDS011;64571;47.512;19.054;2024-01-27T06:27:45;8.32;;;1.10;;
75890;SDS011;64571;47.512;19.054;2024-01-27T06:30:47;4.60;;;1.08;;
75890;SDS011;64571;47.512;19.054;2024-01-27T06:33:50;6.30;;;1.02;;
75890;SDS011;64571;47.512;19.054;2024-01-27T06:36:53;4.55;;;0.60;;
75890;SDS011;64571;47.512;19.054;2024-01-27T06:39:56;4.20;;;0.70;;
75890;SDS011;64571;47.512;19.054;2024-01-27T06:42:58;4.57;;;0.55;;
75890;SDS011;64571;47.512;19.054;2024-01-27T06:46:04;4.07;;;0.77;;
75890;SDS011;64571;47.512;19.054;2024-01-27T06:49:07;8.82;;;1.25;;
75890;SDS011;64571;47.512;19.054;2024-01-27T06:52:10;3.62;;;0.93;;
75890;SDS011;64571;47.512;19.054;2024-01-27T06:55:14;5.67;;;1.10;;
75890;SDS011;64571;47.512;19.054;2024-01-27T06:58:17;5.05;;;0.65;;
75890;SDS011;64571;47.512;19.054;2024-01-27T07:01:19;6.12;;;1.20;;
75890;SDS011;64571;47.512;19.054;2024-01-27T07:04:23;4.40;;;1.52;;
75890;SDS011;64571;47.512;19.054;2024-01-27T07:07:26;5.07;;;1.10;;
75890;SDS011;64571;47.512;19.054;2024-01-27T07:10:30;3.13;;;0.83;;
75890;SDS011;64571;47.512;19.054;2024-01-27T07:13:32;4.50;;;0.88;;
75890;SDS011;64571;47.512;19.054;2024-01-27T07:16:35;4.55;;;0.75;;
75890;SDS011;64571;47.512;19.054;2024-01-27T07:19:37;7.93;;;1.27;;
75890;SDS011;64571;47.512;19.054;2024-01-27T07:22:41;4.75;;;1.27;;
75890;SDS011;64571;47.512;19.054;2024-01-27T07:25:44;3.53;;;0.70;;
75890;SDS011;64571;47.512;19.054;2024-01-27T07:28:47;9.20;;;1.08;;
75890;SDS011;64571;47.512;19.054;2024-01-27T07:31:49;3.87;;;0.70;;
75890;SDS011;64571;47.512;19.054;2024-01-27T07:34:52;4.10;;;0.62;;
75890;SDS011;64571;47.512;19.054;2024-01-27T07:37:55;6.70;;;1.42;;
75890;SDS011;64571;47.512;19.054;2024-01-27T07:40:57;4.97;;;0.80;;
75890;SDS011;64571;47.512;19.054;2024-01-27T07:44:11;7.10;;;2.12;;
75890;SDS011;64571;47.512;19.054;2024-01-27T07:47:15;4.97;;;1.23;;
75890;SDS011;64571;47.512;19.054;2024-01-27T07:50:18;4.87;;;1.45;;
75890;SDS011;64571;47.512;19.054;2024-01-27T07:53:21;4.35;;;0.77;;
75890;SDS011;64571;47.512;19.054;2024-01-27T07:56:24;4.63;;;0.77;;
75890;SDS011;64571;47.512;19.054;2024-01-27T07:59:27;7.18;;;1.10;;
75890;SDS011;64571;47.512;19.054;2024-01-27T08:02:29;5.05;;;0.85;;
75890;SDS011;64571;47.512;19.054;2024-01-27T08:05:32;4.55;;;1.05;;
75890;SDS011;64571;47.512;19.054;2024-01-27T08:08:34;5.37;;;1.10;;
75890;SDS011;64571;47.512;19.054;2024-01-27T08:11:37;3.03;;;0.73;;
75890;SDS011;64571;47.512;19.054;2024-01-27T08:14:39;4.87;;;0.98;;
75890;SDS011;64571;47.512;19.054;2024-01-27T08:17:42;7.28;;;1.25;;
75890;SDS011;64571;47.512;19.054;2024-01-27T08:20:45;3.95;;;0.80;;
75890;SDS011;64571;47.512;19.054;2024-01-27T08:23:47;3.28;;;0.62;;
75890;SDS011;64571;47.512;19.054;2024-01-27T08:26:50;4.93;;;1.07;;
75890;SDS011;64571;47.512;19.054;2024-01-27T08:29:53;5.15;;;1.00;;
75890;SDS011;64571;47.512;19.054;2024-01-27T08:32:59;3.58;;;0.73;;
75890;SDS011;64571;47.512;19.054;2024-01-27T08:36:02;4.70;;;0.65;;
75890;SDS011;64571;47.512;19.054;2024-01-27T08:39:04;3.50;;;0.60;;
75890;SDS011;64571;47.512;19.054;2024-01-27T08:42:10;3.50;;;0.47;;
75890;SDS011;64571;47.512;19.054;2024-01-27T08:45:13;3.70;;;0.68;;
75890;SDS011;64571;47.512;19.054;2024-01-27T08:48:16;4.05;;;0.88;;
75890;SDS011;64571;47.512;19.054;2024-01-27T08:51:18;3.83;;;0.68;;
75890;SDS011;64571;47.512;19.054;2024-01-27T08:54:21;4.20;;;0.80;;
75890;SDS011;64571;47.512;19.054;2024-01-27T08:57:26;4.47;;;1.00;;
75890;SDS011;64571;47.512;19.054;2024-01-27T09:00:29;3.55;;;0.62;;
75890;SDS011;64571;47.512;19.054;2024-01-27T09:03:32;4.57;;;0.70;;
75890;SDS011;64571;47.512;19.054;2024-01-27T09:06:35;4.68;;;0.80;;
75890;SDS011;64571;47.512;19.054;2024-01-27T09:09:37;3.67;;;0.93;;
75890;SDS011;64571;47.512;19.054;2024-01-27T09:12:41;6.90;;;1.03;;
75890;SDS011;64571;47.512;19.054;2024-01-27T09:15:44;3.60;;;0.80;;
75890;SDS011;64571;47.512;19.054;2024-01-27T09:18:47;2.58;;;0.60;;
75890;SDS011;64571;47.512;19.054;2024-01-27T09:21:52;4.10;;;0.88;;
75890;SDS011;64571;47.512;19.054;2024-01-27T09:24:55;3.65;;;0.88;;
75890;SDS011;64571;47.512;19.054;2024-01-27T09:27:57;5.97;;;1.10;;
75890;SDS011;64571;47.512;19.054;2024-01-27T09:31:03;4.15;;;0.90;;
75890;SDS011;64571;47.512;19.054;2024-01-27T09:34:05;3.03;;;0.90;;
75890;SDS011;64571;47.512;19.054;2024-01-27T09:37:08;3.72;;;0.90;;
75890;SDS011;64571;47.512;19.054;2024-01-27T09:40:11;6.18;;;1.33;;
75890;SDS011;64571;47.512;19.054;2024-01-27T09:43:14;3.43;;;0.70;;
75890;SDS011;64571;47.512;19.054;2024-01-27T09:46:20;7.28;;;1.17;;
75890;SDS011;64571;47.512;19.054;2024-01-27T09:49:23;6.50;;;0.95;;
75890;SDS011;64571;47.512;19.054;2024-01-27T09:52:28;3.55;;;0.95;;
75890;SDS011;64571;47.512;19.054;2024-01-27T09:55:31;4.93;;;1.12;;
75890;SDS011;64571;47.512;19.054;2024-01-27T09:58:34;3.87;;;0.80;;
75890;SDS011;64571;47.512;19.054;2024-01-27T10:01:37;4.82;;;1.00;;
75890;SDS011;64571;47.512;19.054;2024-01-27T10:04:41;7.37;;;1.33;;
75890;SDS011;64571;47.512;19.054;2024-01-27T10:07:45;6.18;;;1.20;;
75890;SDS011;64571;47.512;19.054;2024-01-27T10:10:47;5.03;;;0.90;;
75890;SDS011;64571;47.512;19.054;2024-01-27T10:13:56;4.83;;;1.10;;
75890;SDS011;64571;47.512;19.054;2024-01-27T10:17:01;6.05;;;0.90;;
75890;SDS011;64571;47.512;19.054;2024-01-27T10:20:04;7.50;;;1.25;;
75890;SDS011;64571;47.512;19.054;2024-01-27T10:23:12;5.07;;;1.30;;
75890;SDS011;64571;47.512;19.054;2024-01-27T10:26:15;5.47;;;0.90;;
75890;SDS011;64571;47.512;19.054;2024-01-27T10:29:17;7.33;;;0.97;;
75890;SDS011;64571;47.512;19.054;2024-01-27T10:32:20;6.57;;;1.00;;
75890;SDS011;64571;47.512;19.054;2024-01-27T10:35:26;5.62;;;1.27;;
75890;SDS011;64571;47.512;19.054;2024-01-27T10:38:38;5.53;;;0.70;;
75890;SDS011;64571;47.512;19.054;2024-01-27T10:41:41;6.37;;;0.85;;
75890;SDS011;64571;47.512;19.054;2024-01-27T10:44:46;5.63;;;1.00;;
75890;SDS011;64571;47.512;19.054;2024-01-27T10:47:50;7.47;;;1.17;;
75890;SDS011;64571;47.512;19.054;2024-01-27T10:50:53;4.00;;;1.02;;
75890;SDS011;64571;47.512;19.054;2024-01-27T10:53:59;9.13;;;1.15;;
75890;SDS011;64571;47.512;19.054;2024-01-27T10:57:04;4.30;;;1.02;;
75890;SDS011;64571;47.512;19.054;2024-01-27T11:00:10;3.67;;;0.90;;
75890;SDS011;64571;47.512;19.054;2024-01-27T11:03:14;8.48;;;1.25;;
75890;SDS011;64571;47.512;19.054;2024-01-27T11:06:21;5.10;;;1.00;;
75890;SDS011;64571;47.512;19.054;2024-01-27T11:09:25;4.75;;;0.88;;
75890;SDS011;64571;47.512;19.054;2024-01-27T11:12:28;4.35;;;1.00;;
75890;SDS011;64571;47.512;19.054;2024-01-27T11:15:32;5.23;;;0.83;;
75890;SDS011;64571;47.512;19.054;2024-01-27T11:18:35;8.27;;;1.40;;
75890;SDS011;64571;47.512;19.054;2024-01-27T11:21:38;4.82;;;1.10;;
75890;SDS011;64571;47.512;19.054;2024-01-27T11:24:41;6.53;;;1.17;;
75890;SDS011;64571;47.512;19.054;2024-01-27T11:27:45;8.20;;;1.40;;
75890;SDS011;64571;47.512;19.054;2024-01-27T11:30:49;3.77;;;0.80;;
75890;SDS011;64571;47.512;19.054;2024-01-27T11:33:51;6.18;;;0.90;;
75890;SDS011;64571;47.512;19.054;2024-01-27T11:36:56;3.87;;;1.15;;
75890;SDS011;64571;47.512;19.054;2024-01-27T11:40:05;4.45;;;0.93;;
75890;SDS011;64571;47.512;19.054;2024-01-27T11:43:09;4.55;;;1.02;;
75890;SDS011;64571;47.512;19.054;2024-01-27T11:46:16;5.50;;;1.07;;
75890;SDS011;64571;47.512;19.054;2024-01-27T11:49:18;8.18;;;1.15;;
75890;SDS011;64571;47.512;19.054;2024-01-27T11:52:21;8.02;;;1.45;;
75890;SDS011;64571;47.512;19.054;2024-01-27T11:55:24;4.35;;;1.23;;
75890;SDS011;64571;47.512;19.054;2024-01-27T11:58:27;6.03;;;1.12;;
75890;SDS011;64571;47.512;19.054;2024-01-27T12:01:30;11.13;;;2.67;;
75890;SDS011;64571;47.512;19.054;2024-01-27T12:04:33;6.10;;;1.20;;
75890;SDS011;64571;47.512;19.054;2024-01-27T12:07:36;4.62;;;1.20;;
75890;SDS011;64571;47.512;19.054;2024-01-27T12:10:39;3.20;;;0.80;;
75890;SDS011;64571;47.512;19.054;2024-01-27T12:13:41;4.05;;;1.20;;
75890;SDS011;64571;47.512;19.054;2024-01-27T12:16:44;5.90;;;1.83;;
75890;SDS011;64571;47.512;19.054;2024-01-27T12:19:47;5.78;;;1.25;;
75890;SDS011;64571;47.512;19.054;2024-01-27T12:23:04;3.17;;;0.70;;
75890;SDS011;64571;47.512;19.054;2024-01-27T12:26:13;6.80;;;1.10;;
75890;SDS011;64571;47.512;19.054;2024-01-27T12:29:16;5.05;;;1.10;;
75890;SDS011;64571;47.512;19.054;2024-01-27T12:32:22;4.73;;;1.40;;
75890;SDS011;64571;47.512;19.054;2024-01-27T12:35:26;5.85;;;0.98;;
75890;SDS011;64571;47.512;19.054;2024-01-27T12:38:31;5.85;;;1.33;;
75890;SDS011;64571;47.512;19.054;2024-01-27T12:41:35;3.12;;;0.73;;
75890;SDS011;64571;47.512;19.054;2024-01-27T12:44:38;5.10;;;1.45;;
75890;SDS011;64571;47.512;19.054;2024-01-27T12:47:41;4.40;;;0.87;;
75890;SDS011;64571;47.512;19.054;2024-01-27T12:50:44;5.32;;;1.12;;
75890;SDS011;64571;47.512;19.054;2024-01-27T12:53:46;3.00;;;0.80;;
75890;SDS011;64571;47.512;19.054;2024-01-27T12:56:49;3.50;;;0.70;;
75890;SDS011;64571;47.512;19.054;2024-01-27T12:59:52;10.27;;;1.23;;
75890;SDS011;64571;47.512;19.054;2024-01-27T13:02:54;3.67;;;0.97;;
75890;SDS011;64571;47.512;19.054;2024-01-27T13:05:57;2.70;;;0.57;;
75890;SDS011;64571;47.512;19.054;2024-01-27T13:09:00;5.68;;;0.93;;
75890;SDS011;64571;47.512;19.054;2024-01-27T13:12:03;3.00;;;0.70;;
75890;SDS011;64571;47.512;19.054;2024-01-27T13:15:06;6.35;;;1.33;;
75890;SDS011;64571;47.512;19.054;2024-01-27T13:18:09;7.80;;;1.00;;
75890;SDS011;64571;47.512;19.054;2024-01-27T13:21:13;10.98;;;1.20;;
75890;SDS011;64571;47.512;19.054;2024-01-27T13:24:16;11.30;;;1.40;;
75890;SDS011;64571;47.512;19.054;2024-01-27T13:27:19;7.28;;;1.00;;
75890;SDS011;64571;47.512;19.054;2024-01-27T13:30:22;4.60;;;1.05;;
75890;SDS011;64571;47.512;19.054;2024-01-27T13:33:26;6.23;;;0.90;;
75890;SDS011;64571;47.512;19.054;2024-01-27T13:36:31;9.15;;;1.40;;
75890;SDS011;64571;47.512;19.054;2024-01-27T13:39:34;4.93;;;0.93;;
75890;SDS011;64571;47.512;19.054;2024-01-27T13:42:38;4.32;;;0.60;;
75890;SDS011;64571;47.512;19.054;2024-01-27T13:45:40;3.50;;;1.00;;
75890;SDS011;64571;47.512;19.054;2024-01-27T13:48:43;7.27;;;1.20;;
75890;SDS011;64571;47.512;19.054;2024-01-27T13:51:46;4.78;;;1.05;;
75890;SDS011;64571;47.512;19.054;2024-01-27T13:54:49;5.97;;;1.17;;
75890;SDS011;64571;47.512;19.054;2024-01-27T13:57:52;3.87;;;0.90;;
75890;SDS011;64571;47.512;19.054;2024-01-27T14:00:55;7.43;;;1.00;;
75890;SDS011;64571;47.512;19.054;2024-01-27T14:03:58;7.43;;;1.63;;
75890;SDS011;64571;47.512;19.054;2024-01-27T14:07:00;4.03;;;0.88;;
75890;SDS011;64571;47.512;19.054;2024-01-27T14:10:09;6.55;;;1.42;;
75890;SDS011;64571;47.512;19.054;2024-01-27T14:13:11;4.55;;;0.98;;
75890;SDS011;64571;47.512;19.054;2024-01-27T14:16:14;5.75;;;0.85;;
75890;SDS011;64571;47.512;19.054;2024-01-27T14:19:17;4.70;;;1.13;;
75890;SDS011;64571;47.512;19.054;2024-01-27T14:22:20;5.47;;;1.10;;
75890;SDS011;64571;47.512;19.054;2024-01-27T14:25:22;5.78;;;1.37;;
75890;SDS011;64571;47.512;19.054;2024-01-27T14:28:25;4.32;;;1.12;;
75890;SDS011;64571;47.512;19.054;2024-01-27T14:31:27;11.18;;;1.30;;
75890;SDS011;64571;47.512;19.054;2024-01-27T14:34:32;9.10;;;0.97;;
75890;SDS011;64571;47.512;19.054;2024-01-27T14:37:35;5.65;;;0.90;;
75890;SDS011;64571;47.512;19.054;2024-01-27T14:40:38;7.18;;;1.48;;
75890;SDS011;64571;47.512;19.054;2024-01-27T14:43:41;7.65;;;1.10;;
75890;SDS011;64571;47.512;19.054;2024-01-27T14:46:44;8.93;;;1.35;;
75890;SDS011;64571;47.512;19.054;2024-01-27T14:49:46;4.37;;;1.07;;
75890;SDS011;64571;47.512;19.054;2024-01-27T14:52:49;6.18;;;1.37;;
75890;SDS011;64571;47.512;19.054;2024-01-27T14:55:52;7.20;;;1.40;;
75890;SDS011;64571;47.512;19.054;2024-01-27T14:58:55;5.78;;;1.30;;
75890;SDS011;64571;47.512;19.054;2024-01-27T15:01:58;6.80;;;2.08;;
75890;SDS011;64571;47.512;19.054;2024-01-27T15:05:01;7.53;;;1.70;;
75890;SDS011;64571;47.512;19.054;2024-01-27T15:08:03;4.32;;;0.98;;
75890;SDS011;64571;47.512;19.054;2024-01-27T15:11:06;4.03;;;1.20;;
75890;SDS011;64571;47.512;19.054;2024-01-27T15:14:09;4.60;;;1.00;;
75890;SDS011;64571;47.512;19.054;2024-01-27T15:17:12;4.90;;;1.25;;
75890;SDS011;64571;47.512;19.054;2024-01-27T15:20:14;4.53;;;0.87;;
75890;SDS011;64571;47.512;19.054;2024-01-27T15:23:17;10.55;;;1.27;;
75890;SDS011;64571;47.512;19.054;2024-01-27T15:26:21;8.43;;;1.90;;
75890;SDS011;64571;47.512;19.054;2024-01-27T15:29:25;3.83;;;1.00;;
75890;SDS011;64571;47.512;19.054;2024-01-27T15:32:27;6.62;;;1.37;;
75890;SDS011;64571;47.512;19.054;2024-01-27T15:35:30;9.00;;;1.77;;
75890;SDS011;64571;47.512;19.054;2024-01-27T15:38:35;4.68;;;1.08;;
75890;SDS011;64571;47.512;19.054;2024-01-27T15:41:38;6.47;;;1.23;;
75890;SDS011;64571;47.512;19.054;2024-01-27T15:44:42;10.90;;;1.00;;
75890;SDS011;64571;47.512;19.054;2024-01-27T15:47:45;7.70;;;1.42;;
75890;SDS011;64571;47.512;19.054;2024-01-27T15:50:47;2.70;;;0.40;;
75890;SDS011;64571;47.512;19.054;2024-01-27T15:53:50;4.30;;;0.95;;
75890;SDS011;64571;47.512;19.054;2024-01-27T15:56:52;3.50;;;0.90;;
75890;SDS011;64571;47.512;19.054;2024-01-27T15:59:56;9.52;;;1.60;;
75890;SDS011;64571;47.512;19.054;2024-01-27T16:02:59;7.75;;;1.55;;
75890;SDS011;64571;47.512;19.054;2024-01-27T16:06:01;4.83;;;1.10;;
75890;SDS011;64571;47.512;19.054;2024-01-27T16:09:04;9.75;;;1.80;;
75890;SDS011;64571;47.512;19.054;2024-01-27T16:12:07;8.35;;;1.37;;
75890;SDS011;64571;47.512;19.054;2024-01-27T16:15:10;5.45;;;1.30;;
75890;SDS011;64571;47.512;19.054;2024-01-27T16:18:13;7.03;;;1.60;;
75890;SDS011;64571;47.512;19.054;2024-01-27T16:21:16;7.27;;;1.07;;
75890;SDS011;64571;47.512;19.054;2024-01-27T16:24:19;9.57;;;1.65;;
75890;SDS011;64571;47.512;19.054;2024-01-27T16:27:21;5.78;;;1.20;;
75890;SDS011;64571;47.512;19.054;2024-01-27T16:30:31;7.62;;;2.20;;
75890;SDS011;64571;47.512;19.054;2024-01-27T16:33:33;6.62;;;1.65;;
75890;SDS011;64571;47.512;19.054;2024-01-27T16:36:36;8.00;;;1.73;;
75890;SDS011;64571;47.512;19.054;2024-01-27T16:39:39;10.15;;;2.00;;
75890;SDS011;64571;47.512;19.054;2024-01-27T16:42:42;7.30;;;1.70;;
75890;SDS011;64571;47.512;19.054;2024-01-27T16:45:45;6.50;;;1.27;;
75890;SDS011;64571;47.512;19.054;2024-01-27T16:48:48;5.15;;;1.23;;
75890;SDS011;64571;47.512;19.054;2024-01-27T16:51:53;8.63;;;1.43;;
75890;SDS011;64571;47.512;19.054;2024-01-27T16:54:57;5.37;;;1.48;;
75890;SDS011;64571;47.512;19.054;2024-01-27T16:57:59;8.93;;;2.20;;
75890;SDS011;64571;47.512;19.054;2024-01-27T17:01:02;4.95;;;1.23;;
75890;SDS011;64571;47.512;19.054;2024-01-27T17:04:05;7.22;;;2.03;;
75890;SDS011;64571;47.512;19.054;2024-01-27T17:07:09;9.73;;;1.73;;
75890;SDS011;64571;47.512;19.054;2024-01-27T17:10:12;7.22;;;1.20;;
75890;SDS011;64571;47.512;19.054;2024-01-27T17:13:14;7.20;;;1.85;;
75890;SDS011;64571;47.512;19.054;2024-01-27T17:16:18;9.70;;;1.60;;
75890;SDS011;64571;47.512;19.054;2024-01-27T17:19:20;10.50;;;1.52;;
75890;SDS011;64571;47.512;19.054;2024-01-27T17:22:23;5.13;;;1.00;;
75890;SDS011;64571;47.512;19.054;2024-01-27T17:25:26;6.55;;;1.45;;
75890;SDS011;64571;47.512;19.054;2024-01-27T17:28:28;7.55;;;2.03;;
75890;SDS011;64571;47.512;19.054;2024-01-27T17:31:31;7.15;;;1.50;;
75890;SDS011;64571;47.512;19.054;2024-01-27T17:34:33;10.80;;;1.73;;
75890;SDS011;64571;47.512;19.054;2024-01-27T17:37:36;5.13;;;1.50;;
75890;SDS011;64571;47.512;19.054;2024-01-27T17:40:39;8.43;;;1.65;;
75890;SDS011;64571;47.512;19.054;2024-01-27T17:43:41;7.47;;;1.98;;
75890;SDS011;64571;47.512;19.054;2024-01-27T17:46:44;9.05;;;1.40;;
75890;SDS011;64571;47.512;19.054;2024-01-27T17:49:47;8.68;;;1.90;;
75890;SDS011;64571;47.512;19.054;2024-01-27T17:52:49;11.97;;;1.50;;
75890;SDS011;64571;47.512;19.054;2024-01-27T17:55:53;7.53;;;1.90;;
75890;SDS011;64571;47.512;19.054;2024-01-27T17:58:56;13.45;;;2.20;;
75890;SDS011;64571;47.512;19.054;2024-01-27T18:01:59;6.07;;;1.60;;
75890;SDS011;64571;47.512;19.054;2024-01-27T18:05:02;7.35;;;2.30;;